createdAt,value
2023-01-19T00:00:25.839Z,90.55
2023-01-19T00:03:28.368Z,89.40
2023-01-19T00:06:31.539Z,89.49
2023-01-19T00:09:34.008Z,89.31
2023-01-19T00:12:36.583Z,89.29
2023-01-19T00:15:39.257Z,89.35
2023-01-19T00:18:41.661Z,88.44
2023-01-19T00:21:44.338Z,88.37
2023-01-19T00:24:46.740Z,88.46
2023-01-19T00:27:49.446Z,88.80
2023-01-19T00:30:52.313Z,90.18
2023-01-19T00:33:54.688Z,90.31
2023-01-19T00:36:57.126Z,89.18
2023-01-19T00:39:59.592Z,89.87
2023-01-19T00:43:03.280Z,89.78
2023-01-19T00:46:06.097Z,89.93
2023-01-19T00:49:08.484Z,89.14
2023-01-19T00:52:10.997Z,88.78
2023-01-19T00:55:14.615Z,89.50
2023-01-19T00:58:17.106Z,89.33
2023-01-19T01:01:19.801Z,89.28
2023-01-19T01:04:22.375Z,89.31
2023-01-19T01:07:24.901Z,89.88
2023-01-19T01:10:29.351Z,90.07
2023-01-19T01:13:32.121Z,90.11
2023-01-19T01:16:34.966Z,89.96
2023-01-19T01:19:38.534Z,90.26
2023-01-19T01:22:45.191Z,89.85
2023-01-19T01:25:47.801Z,90.38
2023-01-19T01:28:50.748Z,89.76
2023-01-19T01:31:53.449Z,89.10
2023-01-19T01:34:55.860Z,89.04
2023-01-19T01:37:58.992Z,89.37
2023-01-19T01:41:01.379Z,89.20
2023-01-19T01:44:08.291Z,89.35
2023-01-19T01:47:10.980Z,89.26
2023-01-19T01:50:21.052Z,88.88
2023-01-19T01:53:23.469Z,89.04
2023-01-19T01:56:34.438Z,89.73
2023-01-19T01:59:41.292Z,89.96
2023-01-19T02:02:56.967Z,89.37
2023-01-19T02:06:01.902Z,88.93
2023-01-19T02:09:28.983Z,89.33
2023-01-19T02:12:50.587Z,89.55
2023-01-19T02:15:55.722Z,88.64
2023-01-19T02:18:58.308Z,89.31
2023-01-19T02:22:20.316Z,88.23
2023-01-19T02:25:23.235Z,88.48
2023-01-19T02:28:27.935Z,88.19
2023-01-19T02:31:32.001Z,89.26
2023-01-19T02:34:35.464Z,89.12
2023-01-19T02:37:40.348Z,88.42
2023-01-19T02:40:44.347Z,88.90
2023-01-19T02:43:49.238Z,89.16
2023-01-19T02:46:54.408Z,88.91
2023-01-19T02:49:58.305Z,88.53
2023-01-19T02:53:21.770Z,88.15
2023-01-19T02:56:40.231Z,89.14
2023-01-19T03:00:23.485Z,89.85
2023-01-19T03:03:42.965Z,89.90
2023-01-19T03:07:11.017Z,89.86
2023-01-19T03:10:38.972Z,89.35
2023-01-19T03:14:03.956Z,89.83
2023-01-19T03:17:08.051Z,90.16
2023-01-19T03:20:14.015Z,90.27
2023-01-19T03:23:18.936Z,90.03
2023-01-19T03:26:26.934Z,89.53
2023-01-19T03:29:34.832Z,89.61
2023-01-19T03:32:49.812Z,89.24
2023-01-19T03:35:57.663Z,89.15
2023-01-19T03:39:04.268Z,89.07
2023-01-19T03:42:12.032Z,88.97
2023-01-19T03:45:15.208Z,89.71
2023-01-19T03:48:17.628Z,89.65
2023-01-19T03:51:21.809Z,89.84
2023-01-19T03:54:24.397Z,88.79
2023-01-19T03:57:27.168Z,87.83
2023-01-19T04:00:29.987Z,89.08
2023-01-19T04:03:32.456Z,88.98
2023-01-19T04:06:35.309Z,88.83
2023-01-19T04:09:37.843Z,88.66
2023-01-19T04:12:40.320Z,87.14
2023-01-19T04:15:42.709Z,87.27
2023-01-19T04:18:45.133Z,88.04
2023-01-19T04:21:50.919Z,88.25
2023-01-19T04:24:53.308Z,89.62
2023-01-19T04:27:58.346Z,89.53
2023-01-19T04:31:01.169Z,89.73
2023-01-19T04:34:04.108Z,90.89
2023-01-19T04:37:08.556Z,90.12
2023-01-19T04:40:11.584Z,89.85
2023-01-19T04:43:14.345Z,89.21
2023-01-19T04:46:16.779Z,88.63
2023-01-19T04:49:19.179Z,88.92
2023-01-19T04:52:21.496Z,88.50
2023-01-19T04:55:23.839Z,89.88
2023-01-19T04:58:26.713Z,89.55
2023-01-19T05:01:29.437Z,89.30
2023-01-19T05:04:31.992Z,89.71
2023-01-19T05:07:35.296Z,88.76
2023-01-19T05:10:37.710Z,88.70
2023-01-19T05:13:40.060Z,88.55
2023-01-19T05:16:42.483Z,88.74
2023-01-19T05:19:44.858Z,88.64
2023-01-19T05:22:51.250Z,87.63
2023-01-19T05:25:56.361Z,89.13
2023-01-19T05:28:59.009Z,88.82
2023-01-19T05:32:01.771Z,89.17
2023-01-19T05:35:04.413Z,89.03
2023-01-19T05:38:06.859Z,90.10
2023-01-19T05:41:09.280Z,90.19
2023-01-19T05:44:12.488Z,89.88
2023-01-19T05:47:14.947Z,89.46
2023-01-19T05:50:17.324Z,89.53
2023-01-19T05:53:19.727Z,90.08
2023-01-19T05:56:22.068Z,88.18
2023-01-19T05:59:24.466Z,87.27
2023-01-19T06:02:30.103Z,88.28
2023-01-19T06:05:32.769Z,89.25
2023-01-19T06:08:35.450Z,89.73
2023-01-19T06:11:37.864Z,88.76
2023-01-19T06:14:40.846Z,89.08
2023-01-19T06:17:43.230Z,89.17
2023-01-19T06:20:45.844Z,88.92
2023-01-19T06:23:48.230Z,88.57
2023-01-19T06:26:51.300Z,89.82
2023-01-19T06:29:53.856Z,88.67
2023-01-19T06:32:56.323Z,90.27
2023-01-19T06:35:58.859Z,89.68
2023-01-19T06:39:05.183Z,90.12
2023-01-19T06:42:09.876Z,88.02
2023-01-19T06:45:12.273Z,87.46
2023-01-19T06:48:14.739Z,86.99
2023-01-19T06:51:17.369Z,86.81
2023-01-19T06:54:20.216Z,87.04
2023-01-19T06:57:23.065Z,86.75
2023-01-19T07:00:26.003Z,86.58
2023-01-19T07:03:28.965Z,87.35
2023-01-19T07:06:31.522Z,87.85
2023-01-19T07:09:33.972Z,88.58
2023-01-19T07:12:36.359Z,89.04
2023-01-19T07:15:39.136Z,88.60
2023-01-19T07:18:41.566Z,88.65
2023-01-19T07:21:43.948Z,89.05
2023-01-19T07:24:46.665Z,89.42
2023-01-19T07:27:49.087Z,89.75
2023-01-19T07:30:53.495Z,90.23
2023-01-19T07:33:56.204Z,90.03
2023-01-19T07:36:58.762Z,89.80
2023-01-19T07:40:01.656Z,89.62
2023-01-19T07:43:04.367Z,90.17
2023-01-19T07:46:08.252Z,89.35
2023-01-19T07:49:11.689Z,90.65
2023-01-19T07:52:14.470Z,90.10
2023-01-19T07:55:16.957Z,89.83
2023-01-19T07:58:19.391Z,90.05
2023-01-19T08:01:22.061Z,90.06
2023-01-19T08:04:25.921Z,90.34
2023-01-19T08:07:28.472Z,89.46
2023-01-19T08:10:31.293Z,90.29
2023-01-19T08:13:33.784Z,90.46
2023-01-19T08:16:36.861Z,90.61
2023-01-19T08:19:41.443Z,90.25
2023-01-19T08:22:47.125Z,90.18
2023-01-19T08:25:49.505Z,90.74
2023-01-19T08:28:52.013Z,90.38
2023-01-19T08:31:55.681Z,90.80
2023-01-19T08:34:58.399Z,90.79
2023-01-19T08:38:03.949Z,90.22
2023-01-19T08:41:06.466Z,90.63
2023-01-19T08:44:08.886Z,90.40
2023-01-19T08:47:11.610Z,90.09
2023-01-19T08:50:14.120Z,90.19
2023-01-19T08:53:17.474Z,89.48
2023-01-19T08:56:20.757Z,89.73
2023-01-19T08:59:23.544Z,89.26
2023-01-19T09:02:26.137Z,90.35
2023-01-19T09:05:29.267Z,90.15
2023-01-19T09:08:32.090Z,89.89
2023-01-19T09:11:35.079Z,89.80
2023-01-19T09:14:38.552Z,90.26
2023-01-19T09:17:44.180Z,89.47
2023-01-19T09:20:48.750Z,89.33
2023-01-19T09:23:51.306Z,89.19
2023-01-19T09:26:53.741Z,89.10
2023-01-19T09:29:56.225Z,89.69
2023-01-19T09:33:06.505Z,89.07
2023-01-19T09:36:09.165Z,88.96
2023-01-19T09:39:11.687Z,88.86
2023-01-19T09:42:38.922Z,86.98
2023-01-19T09:45:57.596Z,87.24
2023-01-19T09:49:06.814Z,88.16
2023-01-19T09:52:15.039Z,88.38
2023-01-19T09:55:22.668Z,89.11
2023-01-19T09:58:25.081Z,87.94
2023-01-19T10:02:05.137Z,88.64
2023-01-19T10:05:46.062Z,88.37
2023-01-19T10:09:05.314Z,88.23
2023-01-19T10:12:21.158Z,88.72
2023-01-19T10:15:42.239Z,88.45
2023-01-19T10:18:51.725Z,88.01
2023-01-19T10:21:57.858Z,88.41
2023-01-19T10:25:06.029Z,87.86
2023-01-19T10:28:10.795Z,88.43
2023-01-19T10:31:14.423Z,87.70
2023-01-19T10:34:23.406Z,87.60
2023-01-19T10:37:34.170Z,87.29
2023-01-19T10:40:46.880Z,86.69
2023-01-19T10:43:50.901Z,86.39
2023-01-19T10:46:56.925Z,87.39
2023-01-19T10:49:59.495Z,86.61
2023-01-19T10:53:05.774Z,87.31
2023-01-19T10:56:15.636Z,86.96
2023-01-19T10:59:56.356Z,87.09
2023-01-19T11:03:00.099Z,86.93
2023-01-19T11:06:17.648Z,87.68
2023-01-19T11:09:21.391Z,86.92
2023-01-19T11:12:24.371Z,87.28
2023-01-19T11:15:41.056Z,87.56
2023-01-19T11:18:44.252Z,87.28
2023-01-19T11:21:46.730Z,86.80
2023-01-19T11:24:49.856Z,87.63
2023-01-19T11:27:52.386Z,88.50
2023-01-19T11:31:03.604Z,88.07
2023-01-19T11:34:21.858Z,86.01
2023-01-19T11:37:32.036Z,87.29
2023-01-19T11:40:35.757Z,87.23
2023-01-19T11:43:48.639Z,87.42
2023-01-19T11:47:05.623Z,87.71
2023-01-19T11:50:21.661Z,87.21
2023-01-19T11:53:28.295Z,86.11
2023-01-19T11:56:30.669Z,86.47
2023-01-19T11:59:33.419Z,87.78
2023-01-19T12:02:45.732Z,87.38
2023-01-19T12:05:52.362Z,86.93
2023-01-19T12:09:19.282Z,86.45
2023-01-19T12:12:29.865Z,86.68
2023-01-19T12:15:37.011Z,88.06
2023-01-19T12:18:47.036Z,87.82
2023-01-19T12:21:52.495Z,86.43
2023-01-19T12:25:10.406Z,86.18
2023-01-19T12:28:15.780Z,87.26
2023-01-19T12:31:23.401Z,86.58
2023-01-19T12:34:27.197Z,86.33
2023-01-19T12:37:41.160Z,87.53
2023-01-19T12:40:43.584Z,86.48
2023-01-19T12:43:47.440Z,85.74
2023-01-19T12:46:50.180Z,86.81
2023-01-19T12:50:06.882Z,86.85
2023-01-19T12:53:19.575Z,86.30
2023-01-19T12:56:31.324Z,85.35
2023-01-19T12:59:37.319Z,83.74
2023-01-19T13:02:47.028Z,85.41
2023-01-19T13:05:56.824Z,85.58
2023-01-19T13:09:00.865Z,86.51
2023-01-19T13:12:15.296Z,87.18
2023-01-19T13:15:35.525Z,87.00
2023-01-19T13:18:41.668Z,86.27
2023-01-19T13:21:48.499Z,86.14
2023-01-19T13:25:13.903Z,87.67
2023-01-19T13:28:18.790Z,86.46
2023-01-19T13:31:22.366Z,87.48
2023-01-19T13:34:27.880Z,86.06
2023-01-19T13:37:40.012Z,85.21
2023-01-19T13:40:44.356Z,86.83
2023-01-19T13:43:48.713Z,87.13
2023-01-19T13:46:52.571Z,87.28
2023-01-19T13:49:58.501Z,88.50
2023-01-19T13:53:02.815Z,87.45
2023-01-19T13:56:09.645Z,87.75
2023-01-19T13:59:13.142Z,88.56
2023-01-19T14:02:15.796Z,89.66
2023-01-19T14:05:32.643Z,88.49
2023-01-19T14:08:35.155Z,89.37
2023-01-19T14:11:37.998Z,88.34
2023-01-19T14:14:42.760Z,87.62
2023-01-19T14:17:45.109Z,88.46
2023-01-19T14:21:07.913Z,89.21
2023-01-19T14:24:17.206Z,89.84
2023-01-19T14:27:24.123Z,88.79
2023-01-19T14:30:26.959Z,87.61
2023-01-19T14:33:36.636Z,87.09
2023-01-19T14:36:42.018Z,88.34
2023-01-19T14:39:46.770Z,88.00
2023-01-19T14:42:58.552Z,86.13
2023-01-19T14:46:01.234Z,87.74
2023-01-19T14:49:06.483Z,86.89
2023-01-19T14:52:24.206Z,86.54
2023-01-19T14:55:35.376Z,86.66
2023-01-19T14:58:37.725Z,86.04
2023-01-19T15:01:40.779Z,85.90
2023-01-19T15:04:43.293Z,87.20
2023-01-19T15:07:46.802Z,87.78
2023-01-19T15:10:49.269Z,85.35
2023-01-19T15:13:51.865Z,84.90
2023-01-19T15:16:54.508Z,86.10
2023-01-19T15:19:56.961Z,86.19
2023-01-19T15:22:59.344Z,86.61
2023-01-19T15:26:03.964Z,86.21
2023-01-19T15:29:23.591Z,87.25
2023-01-19T15:32:26.024Z,86.67
2023-01-19T15:35:28.470Z,86.95
2023-01-19T15:38:31.085Z,87.37
2023-01-19T15:41:33.704Z,86.78
2023-01-19T15:44:36.138Z,87.11
2023-01-19T15:47:38.511Z,86.41
2023-01-19T15:50:43.667Z,84.92
2023-01-19T15:53:46.884Z,86.61
2023-01-19T15:56:49.390Z,87.06
2023-01-19T15:59:51.929Z,86.69
2023-01-19T16:02:54.543Z,86.68
2023-01-19T16:06:00.542Z,87.51
2023-01-19T16:09:03.963Z,87.47
2023-01-19T16:12:07.185Z,86.76
2023-01-19T16:15:10.580Z,86.39
2023-01-19T16:18:13.429Z,87.02
2023-01-19T16:21:15.966Z,87.77
2023-01-19T16:24:18.416Z,88.16
2023-01-19T16:27:20.767Z,87.84
2023-01-19T16:30:23.372Z,85.81
2023-01-19T16:33:25.878Z,86.47
2023-01-19T16:36:31.521Z,86.67
2023-01-19T16:39:34.246Z,86.53
2023-01-19T16:42:36.676Z,86.86
2023-01-19T16:46:01.175Z,87.03
2023-01-19T16:49:14.791Z,86.44
2023-01-19T16:52:17.297Z,85.69
2023-01-19T16:55:19.640Z,87.42
2023-01-19T16:58:22.273Z,87.58
2023-01-19T17:01:27.412Z,87.35
2023-01-19T17:04:30.077Z,87.11
2023-01-19T17:07:32.491Z,86.87
2023-01-19T17:10:40.013Z,86.32
2023-01-19T17:13:42.596Z,86.70
2023-01-19T17:16:45.078Z,86.56
2023-01-19T17:19:48.008Z,86.23
2023-01-19T17:22:50.492Z,87.24
2023-01-19T17:25:54.392Z,87.35
2023-01-19T17:29:08.505Z,87.40
2023-01-19T17:32:11.055Z,86.74
2023-01-19T17:35:13.423Z,87.44
2023-01-19T17:38:16.547Z,86.33
2023-01-19T17:41:22.012Z,87.16
2023-01-19T17:44:24.770Z,87.09
2023-01-19T17:47:27.339Z,87.51
2023-01-19T17:50:31.527Z,86.99
2023-01-19T17:53:35.910Z,87.88
2023-01-19T17:56:39.493Z,86.31
2023-01-19T17:59:43.798Z,85.55
2023-01-19T18:02:49.934Z,86.57
2023-01-19T18:05:54.589Z,86.38
2023-01-19T18:08:58.300Z,86.94
2023-01-19T18:12:00.800Z,87.44
2023-01-19T18:15:05.209Z,86.77
2023-01-19T18:18:07.545Z,86.00
2023-01-19T18:21:13.435Z,85.05
2023-01-19T18:24:15.995Z,84.89
2023-01-19T18:27:18.827Z,85.39
2023-01-19T18:30:22.477Z,85.06
2023-01-19T18:36:28.600Z,84.93
2023-01-19T18:39:31.267Z,85.71
2023-01-19T18:42:34.001Z,85.62
2023-01-19T18:45:39.778Z,84.90
2023-01-19T18:48:42.553Z,84.45
2023-01-19T18:51:45.562Z,83.58
2023-01-19T18:54:48.671Z,82.99
2023-01-19T18:57:51.618Z,82.98
2023-01-19T19:00:54.271Z,82.57
2023-01-19T19:03:57.327Z,84.42
2023-01-19T19:06:59.965Z,84.83
2023-01-19T19:10:02.361Z,84.90
2023-01-19T19:13:05.009Z,83.47
2023-01-19T19:16:09.415Z,81.71
2023-01-19T19:19:15.353Z,81.38
2023-01-19T19:22:18.008Z,81.95
2023-01-19T19:25:20.613Z,84.59
2023-01-19T19:28:23.317Z,82.26
2023-01-19T19:31:27.539Z,83.30
2023-01-19T19:34:30.201Z,83.83
2023-01-19T19:37:32.880Z,84.35
2023-01-19T19:40:35.484Z,85.01
2023-01-19T19:43:38.670Z,85.53
2023-01-19T19:46:41.460Z,85.66
2023-01-19T19:49:44.056Z,85.22
2023-01-19T19:52:46.791Z,85.80
2023-01-19T19:55:57.132Z,83.50
2023-01-19T19:59:00.175Z,83.74
2023-01-19T20:02:03.107Z,83.65
2023-01-19T20:05:05.937Z,83.20
2023-01-19T20:08:09.060Z,84.11
2023-01-19T20:11:14.300Z,84.75
2023-01-19T20:14:16.771Z,85.34
2023-01-19T20:17:20.767Z,86.33
2023-01-19T20:20:24.145Z,86.96
2023-01-19T20:23:26.855Z,87.51
2023-01-19T20:26:33.196Z,89.14
2023-01-19T20:29:36.089Z,88.88
2023-01-19T20:32:41.276Z,89.43
2023-01-19T20:35:43.836Z,88.81
2023-01-19T20:38:46.262Z,89.07
2023-01-19T20:41:51.237Z,88.72
2023-01-19T20:44:55.629Z,88.52
2023-01-19T20:47:58.265Z,89.21
2023-01-19T20:51:10.546Z,89.85
2023-01-19T20:54:15.453Z,88.64
2023-01-19T20:57:18.109Z,88.75
2023-01-19T21:00:21.085Z,89.16
2023-01-19T21:03:27.072Z,90.10
2023-01-19T21:06:29.854Z,90.05
2023-01-19T21:09:32.554Z,90.10
2023-01-19T21:12:35.216Z,90.34
2023-01-19T21:15:37.561Z,90.71
2023-01-19T21:18:39.910Z,90.03
2023-01-19T21:21:42.420Z,89.40
2023-01-19T21:24:44.874Z,89.18
2023-01-19T21:27:47.235Z,88.41
2023-01-19T21:30:50.382Z,88.20
2023-01-19T21:33:53.981Z,87.35
2023-01-19T21:36:56.290Z,87.10
2023-01-19T21:39:58.945Z,87.60
2023-01-19T21:43:01.431Z,87.84
2023-01-19T21:46:14.442Z,87.85
2023-01-19T21:49:18.839Z,87.99
2023-01-19T21:52:21.297Z,87.65
2023-01-19T21:55:24.021Z,87.94
2023-01-19T21:58:27.030Z,88.06
2023-01-19T22:01:29.599Z,88.94
2023-01-19T22:04:32.086Z,89.08
2023-01-19T22:07:34.429Z,89.97
2023-01-19T22:10:37.570Z,90.76
2023-01-19T22:13:40.855Z,90.07
2023-01-19T22:16:43.220Z,89.67
2023-01-19T22:19:45.748Z,90.09
2023-01-19T22:22:48.453Z,89.54
2023-01-19T22:25:50.899Z,89.52
2023-01-19T22:28:55.892Z,89.75
2023-01-19T22:31:58.308Z,89.32
2023-01-19T22:35:03.955Z,89.57
2023-01-19T22:38:06.349Z,89.62
2023-01-19T22:41:21.396Z,89.52
2023-01-19T22:44:24.149Z,89.25
2023-01-19T22:47:26.484Z,90.21
2023-01-19T22:50:28.829Z,88.98
2023-01-19T22:53:32.026Z,89.42
2023-01-19T22:56:35.999Z,89.67
2023-01-19T22:59:38.338Z,89.20
2023-01-19T23:02:40.767Z,89.91
2023-01-19T23:05:43.150Z,89.19
2023-01-19T23:08:45.641Z,89.29
2023-01-19T23:11:50.597Z,89.09
2023-01-19T23:14:53.076Z,89.52
2023-01-19T23:17:55.407Z,89.43
2023-01-19T23:21:12.773Z,89.62
2023-01-19T23:24:15.098Z,90.04
2023-01-19T23:27:17.482Z,89.47
2023-01-19T23:30:19.964Z,90.38
2023-01-19T23:33:22.925Z,90.05
2023-01-19T23:36:27.287Z,90.34
2023-01-19T23:39:30.057Z,90.56
2023-01-19T23:42:32.405Z,90.21
2023-01-19T23:45:35.660Z,89.71
2023-01-19T23:48:38.308Z,90.34
2023-01-19T23:51:41.133Z,90.76
2023-01-19T23:54:44.765Z,90.48
2023-01-19T23:57:47.171Z,90.57
